sensor_id;sensor_type;location;lat;lon;timestamp;P1;durP1;ratioP1;P2;durP2;ratioP2
55210;SDS011;41082;52.822;6.666;2023-05-07T00:01:36;10.98;;;7.63;;
55210;SDS011;41082;52.822;6.666;2023-05-07T00:04:01;9.02;;;7.18;;
55210;SDS011;41082;52.822;6.666;2023-05-07T00:06:28;9.32;;;7.40;;
55210;SDS011;41082;52.822;6.666;2023-05-07T00:08:54;12.73;;;7.53;;
55210;SDS011;41082;52.822;6.666;2023-05-07T00:11:21;8.13;;;7.03;;
55210;SDS011;41082;52.822;6.666;2023-05-07T00:13:47;9.43;;;8.50;;
55210;SDS011;41082;52.822;6.666;2023-05-07T00:16:13;11.15;;;8.07;;
55210;SDS011;41082;52.822;6.666;2023-05-07T00:18:38;13.35;;;8.80;;
55210;SDS011;41082;52.822;6.666;2023-05-07T00:21:04;12.65;;;8.73;;
55210;SDS011;41082;52.822;6.666;2023-05-07T00:23:30;10.52;;;8.70;;
55210;SDS011;41082;52.822;6.666;2023-05-07T00:25:56;12.60;;;8.77;;
55210;SDS011;41082;52.822;6.666;2023-05-07T00:28:21;12.52;;;9.38;;
55210;SDS011;41082;52.822;6.666;2023-05-07T00:30:47;15.25;;;9.88;;
55210;SDS011;41082;52.822;6.666;2023-05-07T00:33:12;13.82;;;10.68;;
55210;SDS011;41082;52.822;6.666;2023-05-07T00:35:38;15.25;;;10.43;;
55210;SDS011;41082;52.822;6.666;2023-05-07T00:38:03;13.82;;;10.30;;
55210;SDS011;41082;52.822;6.666;2023-05-07T00:40:29;15.88;;;11.35;;
55210;SDS011;41082;52.822;6.666;2023-05-07T00:42:55;14.05;;;10.88;;
55210;SDS011;41082;52.822;6.666;2023-05-07T00:45:23;12.02;;;10.43;;
55210;SDS011;41082;52.822;6.666;2023-05-07T00:47:54;14.48;;;11.13;;
55210;SDS011;41082;52.822;6.666;2023-05-07T00:50:23;15.57;;;11.02;;
55210;SDS011;41082;52.822;6.666;2023-05-07T00:52:50;16.48;;;10.70;;
55210;SDS011;41082;52.822;6.666;2023-05-07T00:55:16;13.55;;;11.32;;
55210;SDS011;41082;52.822;6.666;2023-05-07T00:57:42;16.00;;;13.30;;
55210;SDS011;41082;52.822;6.666;2023-05-07T01:00:08;15.80;;;13.18;;
55210;SDS011;41082;52.822;6.666;2023-05-07T01:02:35;17.30;;;13.52;;
55210;SDS011;41082;52.822;6.666;2023-05-07T01:05:01;14.88;;;13.18;;
55210;SDS011;41082;52.822;6.666;2023-05-07T01:07:29;15.27;;;12.98;;
55210;SDS011;41082;52.822;6.666;2023-05-07T01:09:56;16.25;;;12.32;;
55210;SDS011;41082;52.822;6.666;2023-05-07T01:12:22;15.93;;;14.05;;
55210;SDS011;41082;52.822;6.666;2023-05-07T01:14:49;16.33;;;13.77;;
55210;SDS011;41082;52.822;6.666;2023-05-07T01:17:15;16.52;;;13.43;;
55210;SDS011;41082;52.822;6.666;2023-05-07T01:19:41;15.80;;;13.38;;
55210;SDS011;41082;52.822;6.666;2023-05-07T01:22:08;16.30;;;13.73;;
55210;SDS011;41082;52.822;6.666;2023-05-07T01:24:36;18.40;;;14.98;;
55210;SDS011;41082;52.822;6.666;2023-05-07T01:27:02;16.00;;;14.30;;
55210;SDS011;41082;52.822;6.666;2023-05-07T01:29:28;18.08;;;13.73;;
55210;SDS011;41082;52.822;6.666;2023-05-07T01:31:54;15.25;;;13.60;;
55210;SDS011;41082;52.822;6.666;2023-05-07T01:34:22;19.77;;;15.30;;
55210;SDS011;41082;52.822;6.666;2023-05-07T01:36:50;19.88;;;14.60;;
55210;SDS011;41082;52.822;6.666;2023-05-07T01:39:20;17.67;;;14.43;;
55210;SDS011;41082;52.822;6.666;2023-05-07T01:41:56;16.08;;;13.68;;
55210;SDS011;41082;52.822;6.666;2023-05-07T01:44:22;16.83;;;14.43;;
55210;SDS011;41082;52.822;6.666;2023-05-07T01:46:48;17.02;;;14.93;;
55210;SDS011;41082;52.822;6.666;2023-05-07T01:49:15;16.30;;;13.73;;
55210;SDS011;41082;52.822;6.666;2023-05-07T01:51:41;16.65;;;13.88;;
55210;SDS011;41082;52.822;6.666;2023-05-07T01:54:08;16.55;;;13.15;;
55210;SDS011;41082;52.822;6.666;2023-05-07T01:56:33;16.92;;;15.23;;
55210;SDS011;41082;52.822;6.666;2023-05-07T01:58:59;19.77;;;15.52;;
55210;SDS011;41082;52.822;6.666;2023-05-07T02:01:25;18.13;;;16.13;;
55210;SDS011;41082;52.822;6.666;2023-05-07T02:03:51;22.42;;;15.48;;
55210;SDS011;41082;52.822;6.666;2023-05-07T02:06:16;18.98;;;15.98;;
55210;SDS011;41082;52.822;6.666;2023-05-07T02:08:42;19.45;;;16.35;;
55210;SDS011;41082;52.822;6.666;2023-05-07T02:11:07;20.42;;;15.85;;
55210;SDS011;41082;52.822;6.666;2023-05-07T02:13:33;18.42;;;16.02;;
55210;SDS011;41082;52.822;6.666;2023-05-07T02:16:02;18.48;;;16.42;;
55210;SDS011;41082;52.822;6.666;2023-05-07T02:18:28;19.80;;;16.30;;
55210;SDS011;41082;52.822;6.666;2023-05-07T02:20:54;23.60;;;18.50;;
55210;SDS011;41082;52.822;6.666;2023-05-07T02:23:19;22.02;;;18.67;;
55210;SDS011;41082;52.822;6.666;2023-05-07T02:25:45;20.45;;;17.55;;
55210;SDS011;41082;52.822;6.666;2023-05-07T02:28:11;22.30;;;17.85;;
55210;SDS011;41082;52.822;6.666;2023-05-07T02:30:37;21.45;;;18.17;;
55210;SDS011;41082;52.822;6.666;2023-05-07T02:33:03;20.58;;;18.38;;
55210;SDS011;41082;52.822;6.666;2023-05-07T02:35:28;21.48;;;18.00;;
55210;SDS011;41082;52.822;6.666;2023-05-07T02:37:54;24.92;;;19.10;;
55210;SDS011;41082;52.822;6.666;2023-05-07T02:40:20;27.58;;;18.83;;
55210;SDS011;41082;52.822;6.666;2023-05-07T02:42:45;20.77;;;18.52;;
55210;SDS011;41082;52.822;6.666;2023-05-07T02:45:11;24.45;;;19.13;;
55210;SDS011;41082;52.822;6.666;2023-05-07T02:47:36;23.35;;;19.17;;
55210;SDS011;41082;52.822;6.666;2023-05-07T02:50:02;22.30;;;18.65;;
55210;SDS011;41082;52.822;6.666;2023-05-07T02:52:28;23.08;;;18.38;;
55210;SDS011;41082;52.822;6.666;2023-05-07T02:54:54;23.08;;;19.10;;
55210;SDS011;41082;52.822;6.666;2023-05-07T02:57:20;22.77;;;19.70;;
55210;SDS011;41082;52.822;6.666;2023-05-07T02:59:45;24.35;;;19.33;;
55210;SDS011;41082;52.822;6.666;2023-05-07T03:02:11;24.77;;;19.75;;
55210;SDS011;41082;52.822;6.666;2023-05-07T03:04:36;25.70;;;20.83;;
55210;SDS011;41082;52.822;6.666;2023-05-07T03:07:02;24.30;;;20.10;;
55210;SDS011;41082;52.822;6.666;2023-05-07T03:09:28;25.00;;;21.33;;
55210;SDS011;41082;52.822;6.666;2023-05-07T03:11:53;27.75;;;22.02;;
55210;SDS011;41082;52.822;6.666;2023-05-07T03:14:19;28.02;;;21.30;;
55210;SDS011;41082;52.822;6.666;2023-05-07T03:16:45;31.17;;;22.10;;
55210;SDS011;41082;52.822;6.666;2023-05-07T03:19:10;26.45;;;22.58;;
55210;SDS011;41082;52.822;6.666;2023-05-07T03:21:36;32.75;;;23.35;;
55210;SDS011;41082;52.822;6.666;2023-05-07T03:24:01;30.67;;;23.35;;
55210;SDS011;41082;52.822;6.666;2023-05-07T03:26:27;30.25;;;22.88;;
55210;SDS011;41082;52.822;6.666;2023-05-07T03:28:53;32.10;;;24.48;;
55210;SDS011;41082;52.822;6.666;2023-05-07T03:31:20;31.70;;;24.13;;
55210;SDS011;41082;52.822;6.666;2023-05-07T03:33:52;27.65;;;23.40;;
55210;SDS011;41082;52.822;6.666;2023-05-07T03:36:19;34.83;;;24.88;;
55210;SDS011;41082;52.822;6.666;2023-05-07T03:38:45;30.77;;;24.75;;
55210;SDS011;41082;52.822;6.666;2023-05-07T03:41:11;31.83;;;24.35;;
55210;SDS011;41082;52.822;6.666;2023-05-07T03:43:37;32.22;;;24.98;;
55210;SDS011;41082;52.822;6.666;2023-05-07T03:46:02;30.70;;;24.35;;
55210;SDS011;41082;52.822;6.666;2023-05-07T03:48:28;32.00;;;25.00;;
55210;SDS011;41082;52.822;6.666;2023-05-07T03:50:55;32.58;;;25.25;;
55210;SDS011;41082;52.822;6.666;2023-05-07T03:53:22;32.28;;;24.45;;
55210;SDS011;41082;52.822;6.666;2023-05-07T03:55:47;31.77;;;24.77;;
55210;SDS011;41082;52.822;6.666;2023-05-07T03:58:13;31.50;;;24.35;;
55210;SDS011;41082;52.822;6.666;2023-05-07T04:00:38;32.28;;;24.38;;
55210;SDS011;41082;52.822;6.666;2023-05-07T04:03:05;29.13;;;22.95;;
55210;SDS011;41082;52.822;6.666;2023-05-07T04:05:31;29.05;;;23.50;;
55210;SDS011;41082;52.822;6.666;2023-05-07T04:08:00;31.10;;;24.77;;
55210;SDS011;41082;52.822;6.666;2023-05-07T04:10:26;33.58;;;24.60;;
55210;SDS011;41082;52.822;6.666;2023-05-07T04:12:53;29.42;;;23.98;;
55210;SDS011;41082;52.822;6.666;2023-05-07T04:15:18;30.98;;;24.35;;
55210;SDS011;41082;52.822;6.666;2023-05-07T04:17:44;30.35;;;23.90;;
55210;SDS011;41082;52.822;6.666;2023-05-07T04:20:10;31.48;;;24.85;;
55210;SDS011;41082;52.822;6.666;2023-05-07T04:22:41;28.98;;;22.38;;
55210;SDS011;41082;52.822;6.666;2023-05-07T04:25:07;30.30;;;24.38;;
55210;SDS011;41082;52.822;6.666;2023-05-07T04:27:36;33.40;;;23.92;;
55210;SDS011;41082;52.822;6.666;2023-05-07T04:30:02;29.95;;;22.65;;
55210;SDS011;41082;52.822;6.666;2023-05-07T04:32:28;31.15;;;23.85;;
55210;SDS011;41082;52.822;6.666;2023-05-07T04:34:55;30.42;;;23.95;;
55210;SDS011;41082;52.822;6.666;2023-05-07T04:37:21;29.20;;;23.63;;
55210;SDS011;41082;52.822;6.666;2023-05-07T04:39:47;30.45;;;22.75;;
55210;SDS011;41082;52.822;6.666;2023-05-07T04:42:15;29.50;;;22.73;;
55210;SDS011;41082;52.822;6.666;2023-05-07T04:44:43;30.25;;;23.83;;
55210;SDS011;41082;52.822;6.666;2023-05-07T04:47:09;24.83;;;21.60;;
55210;SDS011;41082;52.822;6.666;2023-05-07T04:49:35;29.38;;;21.90;;
55210;SDS011;41082;52.822;6.666;2023-05-07T04:52:00;28.40;;;21.98;;
55210;SDS011;41082;52.822;6.666;2023-05-07T04:54:26;27.75;;;22.55;;
55210;SDS011;41082;52.822;6.666;2023-05-07T04:56:51;23.85;;;20.75;;
55210;SDS011;41082;52.822;6.666;2023-05-07T04:59:17;27.52;;;21.95;;
55210;SDS011;41082;52.822;6.666;2023-05-07T05:01:43;25.70;;;21.38;;
55210;SDS011;41082;52.822;6.666;2023-05-07T05:04:08;24.40;;;20.48;;
55210;SDS011;41082;52.822;6.666;2023-05-07T05:06:35;27.27;;;20.60;;
55210;SDS011;41082;52.822;6.666;2023-05-07T05:09:00;26.55;;;20.95;;
55210;SDS011;41082;52.822;6.666;2023-05-07T05:11:26;26.23;;;20.50;;
55210;SDS011;41082;52.822;6.666;2023-05-07T05:13:52;26.45;;;20.65;;
55210;SDS011;41082;52.822;6.666;2023-05-07T05:16:17;24.55;;;19.75;;
55210;SDS011;41082;52.822;6.666;2023-05-07T05:18:43;23.17;;;19.67;;
55210;SDS011;41082;52.822;6.666;2023-05-07T05:21:08;24.08;;;19.10;;
55210;SDS011;41082;52.822;6.666;2023-05-07T05:23:34;25.17;;;20.20;;
55210;SDS011;41082;52.822;6.666;2023-05-07T05:25:59;23.25;;;19.58;;
55210;SDS011;41082;52.822;6.666;2023-05-07T05:28:25;23.33;;;19.63;;
55210;SDS011;41082;52.822;6.666;2023-05-07T05:30:50;23.27;;;19.92;;
55210;SDS011;41082;52.822;6.666;2023-05-07T05:33:16;24.05;;;19.33;;
55210;SDS011;41082;52.822;6.666;2023-05-07T05:35:42;23.63;;;18.92;;
55210;SDS011;41082;52.822;6.666;2023-05-07T05:38:07;23.88;;;19.50;;
55210;SDS011;41082;52.822;6.666;2023-05-07T05:40:33;22.48;;;19.27;;
55210;SDS011;41082;52.822;6.666;2023-05-07T05:42:59;24.10;;;20.70;;
55210;SDS011;41082;52.822;6.666;2023-05-07T05:45:25;23.80;;;20.40;;
55210;SDS011;41082;52.822;6.666;2023-05-07T05:47:50;23.05;;;19.02;;
55210;SDS011;41082;52.822;6.666;2023-05-07T05:50:16;22.58;;;19.67;;
55210;SDS011;41082;52.822;6.666;2023-05-07T05:52:42;21.58;;;18.95;;
55210;SDS011;41082;52.822;6.666;2023-05-07T05:55:08;26.40;;;21.35;;
55210;SDS011;41082;52.822;6.666;2023-05-07T05:57:33;21.40;;;18.05;;
55210;SDS011;41082;52.822;6.666;2023-05-07T05:59:59;22.85;;;20.15;;
55210;SDS011;41082;52.822;6.666;2023-05-07T06:02:26;24.95;;;20.90;;
55210;SDS011;41082;52.822;6.666;2023-05-07T06:04:51;25.65;;;20.50;;
55210;SDS011;41082;52.822;6.666;2023-05-07T06:07:17;24.08;;;19.88;;
55210;SDS011;41082;52.822;6.666;2023-05-07T06:09:43;25.17;;;20.38;;
55210;SDS011;41082;52.822;6.666;2023-05-07T06:12:09;23.42;;;20.92;;
55210;SDS011;41082;52.822;6.666;2023-05-07T06:14:34;23.38;;;20.27;;
55210;SDS011;41082;52.822;6.666;2023-05-07T06:17:00;22.25;;;19.58;;
55210;SDS011;41082;52.822;6.666;2023-05-07T06:19:25;23.20;;;20.60;;
55210;SDS011;41082;52.822;6.666;2023-05-07T06:21:53;22.63;;;19.77;;
55210;SDS011;41082;52.822;6.666;2023-05-07T06:24:18;22.58;;;19.67;;
55210;SDS011;41082;52.822;6.666;2023-05-07T06:26:44;22.40;;;19.13;;
55210;SDS011;41082;52.822;6.666;2023-05-07T06:29:10;25.23;;;21.00;;
55210;SDS011;41082;52.822;6.666;2023-05-07T06:31:35;24.48;;;20.52;;
55210;SDS011;41082;52.822;6.666;2023-05-07T06:34:01;26.55;;;20.42;;
55210;SDS011;41082;52.822;6.666;2023-05-07T06:36:27;24.63;;;20.38;;
55210;SDS011;41082;52.822;6.666;2023-05-07T06:38:53;23.15;;;20.02;;
55210;SDS011;41082;52.822;6.666;2023-05-07T06:41:19;25.60;;;22.05;;
55210;SDS011;41082;52.822;6.666;2023-05-07T06:43:45;27.75;;;22.58;;
55210;SDS011;41082;52.822;6.666;2023-05-07T06:46:11;24.98;;;21.17;;
55210;SDS011;41082;52.822;6.666;2023-05-07T06:48:36;24.42;;;21.15;;
55210;SDS011;41082;52.822;6.666;2023-05-07T06:51:02;24.52;;;21.90;;
55210;SDS011;41082;52.822;6.666;2023-05-07T06:53:28;26.77;;;22.17;;
55210;SDS011;41082;52.822;6.666;2023-05-07T06:55:55;26.98;;;22.45;;
55210;SDS011;41082;52.822;6.666;2023-05-07T06:58:21;27.65;;;22.23;;
55210;SDS011;41082;52.822;6.666;2023-05-07T07:00:46;27.23;;;22.92;;
55210;SDS011;41082;52.822;6.666;2023-05-07T07:03:12;25.83;;;21.65;;
55210;SDS011;41082;52.822;6.666;2023-05-07T07:05:38;28.10;;;22.63;;
55210;SDS011;41082;52.822;6.666;2023-05-07T07:08:05;27.05;;;22.20;;
55210;SDS011;41082;52.822;6.666;2023-05-07T07:10:30;27.15;;;23.20;;
55210;SDS011;41082;52.822;6.666;2023-05-07T07:12:56;26.50;;;22.92;;
55210;SDS011;41082;52.822;6.666;2023-05-07T07:15:21;30.67;;;23.48;;
55210;SDS011;41082;52.822;6.666;2023-05-07T07:17:49;27.27;;;22.20;;
55210;SDS011;41082;52.822;6.666;2023-05-07T07:20:15;26.02;;;22.20;;
55210;SDS011;41082;52.822;6.666;2023-05-07T07:22:41;26.02;;;22.52;;
55210;SDS011;41082;52.822;6.666;2023-05-07T07:25:07;29.23;;;23.50;;
55210;SDS011;41082;52.822;6.666;2023-05-07T07:27:33;29.35;;;22.90;;
55210;SDS011;41082;52.822;6.666;2023-05-07T07:29:58;27.50;;;23.80;;
55210;SDS011;41082;52.822;6.666;2023-05-07T07:32:24;26.73;;;23.25;;
55210;SDS011;41082;52.822;6.666;2023-05-07T07:34:49;27.00;;;23.02;;
55210;SDS011;41082;52.822;6.666;2023-05-07T07:37:15;29.45;;;23.48;;
55210;SDS011;41082;52.822;6.666;2023-05-07T07:39:40;27.92;;;24.15;;
55210;SDS011;41082;52.822;6.666;2023-05-07T07:42:06;28.40;;;22.65;;
55210;SDS011;41082;52.822;6.666;2023-05-07T07:44:31;26.65;;;23.00;;
55210;SDS011;41082;52.822;6.666;2023-05-07T07:46:57;27.35;;;23.15;;
55210;SDS011;41082;52.822;6.666;2023-05-07T07:49:22;29.50;;;24.27;;
55210;SDS011;41082;52.822;6.666;2023-05-07T07:51:48;27.25;;;24.15;;
55210;SDS011;41082;52.822;6.666;2023-05-07T07:54:14;26.67;;;23.75;;
55210;SDS011;41082;52.822;6.666;2023-05-07T07:56:39;30.73;;;22.85;;
55210;SDS011;41082;52.822;6.666;2023-05-07T07:59:05;27.95;;;23.60;;
55210;SDS011;41082;52.822;6.666;2023-05-07T08:01:30;26.42;;;22.17;;
55210;SDS011;41082;52.822;6.666;2023-05-07T08:03:56;26.63;;;22.55;;
55210;SDS011;41082;52.822;6.666;2023-05-07T08:06:23;32.03;;;24.55;;
55210;SDS011;41082;52.822;6.666;2023-05-07T08:08:50;27.25;;;24.08;;
55210;SDS011;41082;52.822;6.666;2023-05-07T08:11:16;28.23;;;23.35;;
55210;SDS011;41082;52.822;6.666;2023-05-07T08:13:42;24.33;;;21.67;;
55210;SDS011;41082;52.822;6.666;2023-05-07T08:16:08;25.70;;;22.77;;
55210;SDS011;41082;52.822;6.666;2023-05-07T08:18:33;26.17;;;22.23;;
55210;SDS011;41082;52.822;6.666;2023-05-07T08:20:59;28.92;;;24.35;;
55210;SDS011;41082;52.822;6.666;2023-05-07T08:23:26;28.30;;;23.60;;
55210;SDS011;41082;52.822;6.666;2023-05-07T08:25:51;28.77;;;24.10;;
55210;SDS011;41082;52.822;6.666;2023-05-07T08:28:17;25.42;;;22.73;;
55210;SDS011;41082;52.822;6.666;2023-05-07T08:30:42;26.55;;;22.52;;
55210;SDS011;41082;52.822;6.666;2023-05-07T08:33:08;29.95;;;23.08;;
55210;SDS011;41082;52.822;6.666;2023-05-07T08:35:34;28.15;;;23.30;;
55210;SDS011;41082;52.822;6.666;2023-05-07T08:38:00;26.05;;;22.70;;
55210;SDS011;41082;52.822;6.666;2023-05-07T08:40:26;30.55;;;24.42;;
55210;SDS011;41082;52.822;6.666;2023-05-07T08:42:52;28.73;;;23.30;;
55210;SDS011;41082;52.822;6.666;2023-05-07T08:45:19;26.25;;;23.30;;
55210;SDS011;41082;52.822;6.666;2023-05-07T08:47:50;28.35;;;23.10;;
55210;SDS011;41082;52.822;6.666;2023-05-07T08:50:20;28.42;;;23.20;;
55210;SDS011;41082;52.822;6.666;2023-05-07T08:52:46;24.70;;;22.02;;
55210;SDS011;41082;52.822;6.666;2023-05-07T08:55:12;25.02;;;22.30;;
55210;SDS011;41082;52.822;6.666;2023-05-07T08:57:38;26.42;;;21.92;;
55210;SDS011;41082;52.822;6.666;2023-05-07T09:00:04;26.38;;;22.00;;
55210;SDS011;41082;52.822;6.666;2023-05-07T09:02:32;24.35;;;21.02;;
55210;SDS011;41082;52.822;6.666;2023-05-07T09:04:57;23.15;;;20.65;;
55210;SDS011;41082;52.822;6.666;2023-05-07T09:07:23;23.92;;;20.95;;
55210;SDS011;41082;52.822;6.666;2023-05-07T09:09:50;23.17;;;20.55;;
55210;SDS011;41082;52.822;6.666;2023-05-07T09:12:17;25.13;;;21.17;;
55210;SDS011;41082;52.822;6.666;2023-05-07T09:14:43;23.65;;;21.17;;
55210;SDS011;41082;52.822;6.666;2023-05-07T09:17:09;22.92;;;20.52;;
55210;SDS011;41082;52.822;6.666;2023-05-07T09:19:34;23.00;;;20.50;;
55210;SDS011;41082;52.822;6.666;2023-05-07T09:22:04;23.10;;;20.52;;
55210;SDS011;41082;52.822;6.666;2023-05-07T09:24:31;22.95;;;20.48;;
55210;SDS011;41082;52.822;6.666;2023-05-07T09:27:03;22.27;;;19.75;;
55210;SDS011;41082;52.822;6.666;2023-05-07T09:29:29;22.80;;;20.40;;
55210;SDS011;41082;52.822;6.666;2023-05-07T09:32:00;22.77;;;20.05;;
55210;SDS011;41082;52.822;6.666;2023-05-07T09:34:29;21.73;;;19.38;;
55210;SDS011;41082;52.822;6.666;2023-05-07T09:36:55;21.83;;;19.52;;
55210;SDS011;41082;52.822;6.666;2023-05-07T09:39:23;22.02;;;19.27;;
55210;SDS011;41082;52.822;6.666;2023-05-07T09:41:49;21.55;;;18.90;;
55210;SDS011;41082;52.822;6.666;2023-05-07T09:44:16;21.38;;;19.05;;
55210;SDS011;41082;52.822;6.666;2023-05-07T09:46:43;21.42;;;19.10;;
55210;SDS011;41082;52.822;6.666;2023-05-07T09:49:18;21.33;;;19.08;;
55210;SDS011;41082;52.822;6.666;2023-05-07T09:51:50;22.00;;;18.70;;
55210;SDS011;41082;52.822;6.666;2023-05-07T09:54:17;20.53;;;18.43;;
55210;SDS011;41082;52.822;6.666;2023-05-07T09:56:44;19.77;;;17.38;;
55210;SDS011;41082;52.822;6.666;2023-05-07T09:59:13;19.95;;;17.25;;
55210;SDS011;41082;52.822;6.666;2023-05-07T10:01:41;19.63;;;17.65;;
55210;SDS011;41082;52.822;6.666;2023-05-07T10:04:08;18.90;;;16.85;;
55210;SDS011;41082;52.822;6.666;2023-05-07T10:06:35;19.58;;;17.27;;
55210;SDS011;41082;52.822;6.666;2023-05-07T10:09:02;19.27;;;17.30;;
55210;SDS011;41082;52.822;6.666;2023-05-07T10:11:30;18.73;;;16.20;;
55210;SDS011;41082;52.822;6.666;2023-05-07T10:14:01;19.07;;;17.07;;
55210;SDS011;41082;52.822;6.666;2023-05-07T10:16:31;18.00;;;16.23;;
55210;SDS011;41082;52.822;6.666;2023-05-07T10:19:01;17.92;;;16.15;;
55210;SDS011;41082;52.822;6.666;2023-05-07T10:21:27;19.00;;;17.00;;
55210;SDS011;41082;52.822;6.666;2023-05-07T10:23:59;18.83;;;16.38;;
55210;SDS011;41082;52.822;6.666;2023-05-07T10:26:30;18.33;;;16.50;;
55210;SDS011;41082;52.822;6.666;2023-05-07T10:28:59;18.05;;;16.25;;
55210;SDS011;41082;52.822;6.666;2023-05-07T10:34:21;15.95;;;14.23;;
55210;SDS011;41082;52.822;6.666;2023-05-07T10:36:51;18.15;;;16.25;;
55210;SDS011;41082;52.822;6.666;2023-05-07T10:39:19;18.25;;;16.35;;
55210;SDS011;41082;52.822;6.666;2023-05-07T10:41:45;17.80;;;15.98;;
55210;SDS011;41082;52.822;6.666;2023-05-07T10:44:11;17.58;;;15.68;;
55210;SDS011;41082;52.822;6.666;2023-05-07T10:46:37;17.58;;;15.88;;
55210;SDS011;41082;52.822;6.666;2023-05-07T10:51:29;17.55;;;15.15;;
55210;SDS011;41082;52.822;6.666;2023-05-07T10:54:18;16.38;;;14.77;;
55210;SDS011;41082;52.822;6.666;2023-05-07T10:56:44;18.25;;;14.93;;
55210;SDS011;41082;52.822;6.666;2023-05-07T11:01:56;15.98;;;14.18;;
55210;SDS011;41082;52.822;6.666;2023-05-07T11:04:22;16.55;;;14.75;;
55210;SDS011;41082;52.822;6.666;2023-05-07T11:12:18;14.77;;;13.35;;
55210;SDS011;41082;52.822;6.666;2023-05-07T11:26:12;15.95;;;14.25;;
55210;SDS011;41082;52.822;6.666;2023-05-07T11:28:39;16.25;;;13.73;;
55210;SDS011;41082;52.822;6.666;2023-05-07T11:31:05;15.27;;;13.68;;
55210;SDS011;41082;52.822;6.666;2023-05-07T11:33:31;13.73;;;12.32;;
55210;SDS011;41082;52.822;6.666;2023-05-07T11:35:57;13.95;;;12.63;;
55210;SDS011;41082;52.822;6.666;2023-05-07T11:38:25;14.52;;;13.15;;
55210;SDS011;41082;52.822;6.666;2023-05-07T11:40:58;14.98;;;13.55;;
55210;SDS011;41082;52.822;6.666;2023-05-07T11:43:26;13.90;;;12.60;;
55210;SDS011;41082;52.822;6.666;2023-05-07T11:45:51;15.43;;;13.68;;
55210;SDS011;41082;52.822;6.666;2023-05-07T11:48:17;16.55;;;14.90;;
55210;SDS011;41082;52.822;6.666;2023-05-07T11:50:53;15.95;;;14.35;;
55210;SDS011;41082;52.822;6.666;2023-05-07T11:53:25;16.77;;;14.10;;
55210;SDS011;41082;52.822;6.666;2023-05-07T11:55:55;13.95;;;12.55;;
55210;SDS011;41082;52.822;6.666;2023-05-07T11:58:21;14.35;;;12.95;;
55210;SDS011;41082;52.822;6.666;2023-05-07T12:00:52;14.75;;;13.15;;
55210;SDS011;41082;52.822;6.666;2023-05-07T12:03:18;14.87;;;13.37;;
55210;SDS011;41082;52.822;6.666;2023-05-07T12:05:45;16.25;;;13.68;;
55210;SDS011;41082;52.822;6.666;2023-05-07T12:08:14;15.07;;;13.52;;
55210;SDS011;41082;52.822;6.666;2023-05-07T12:10:41;15.40;;;13.57;;
55210;SDS011;41082;52.822;6.666;2023-05-07T12:13:21;15.32;;;13.68;;
55210;SDS011;41082;52.822;6.666;2023-05-07T12:15:51;14.70;;;13.20;;
55210;SDS011;41082;52.822;6.666;2023-05-07T12:18:17;14.73;;;13.30;;
55210;SDS011;41082;52.822;6.666;2023-05-07T12:20:43;15.43;;;13.82;;
55210;SDS011;41082;52.822;6.666;2023-05-07T12:23:10;14.85;;;13.27;;
55210;SDS011;41082;52.822;6.666;2023-05-07T12:25:36;14.77;;;13.27;;
55210;SDS011;41082;52.822;6.666;2023-05-07T12:28:08;14.73;;;13.30;;
55210;SDS011;41082;52.822;6.666;2023-05-07T12:30:38;13.95;;;12.50;;
55210;SDS011;41082;52.822;6.666;2023-05-07T12:33:04;15.40;;;13.90;;
55210;SDS011;41082;52.822;6.666;2023-05-07T12:35:30;14.75;;;13.35;;
55210;SDS011;41082;52.822;6.666;2023-05-07T12:37:57;14.75;;;13.00;;
55210;SDS011;41082;52.822;6.666;2023-05-07T12:40:33;14.93;;;13.43;;
55210;SDS011;41082;52.822;6.666;2023-05-07T12:43:14;13.75;;;12.38;;
55210;SDS011;41082;52.822;6.666;2023-05-07T12:45:42;14.73;;;11.88;;
55210;SDS011;41082;52.822;6.666;2023-05-07T12:48:11;14.45;;;13.00;;
55210;SDS011;41082;52.822;6.666;2023-05-07T12:50:37;15.10;;;13.70;;
55210;SDS011;41082;52.822;6.666;2023-05-07T12:53:03;15.38;;;13.75;;
55210;SDS011;41082;52.822;6.666;2023-05-07T12:55:40;15.25;;;13.75;;
55210;SDS011;41082;52.822;6.666;2023-05-07T12:58:06;14.73;;;13.32;;
55210;SDS011;41082;52.822;6.666;2023-05-07T13:00:36;14.40;;;12.93;;
55210;SDS011;41082;52.822;6.666;2023-05-07T13:03:02;14.70;;;13.27;;
55210;SDS011;41082;52.822;6.666;2023-05-07T13:05:28;14.70;;;13.30;;
55210;SDS011;41082;52.822;6.666;2023-05-07T13:07:54;14.93;;;13.43;;
55210;SDS011;41082;52.822;6.666;2023-05-07T13:10:21;14.23;;;12.93;;
55210;SDS011;41082;52.822;6.666;2023-05-07T13:12:50;15.73;;;14.13;;
55210;SDS011;41082;52.822;6.666;2023-05-07T13:15:16;15.30;;;13.73;;
55210;SDS011;41082;52.822;6.666;2023-05-07T13:17:42;15.68;;;14.10;;
55210;SDS011;41082;52.822;6.666;2023-05-07T13:20:11;14.57;;;13.18;;
55210;SDS011;41082;52.822;6.666;2023-05-07T13:22:40;14.45;;;12.75;;
55210;SDS011;41082;52.822;6.666;2023-05-07T13:25:06;14.27;;;11.80;;
55210;SDS011;41082;52.822;6.666;2023-05-07T13:27:32;13.48;;;12.23;;
55210;SDS011;41082;52.822;6.666;2023-05-07T13:30:01;13.77;;;12.20;;
55210;SDS011;41082;52.822;6.666;2023-05-07T13:32:28;12.70;;;11.43;;
55210;SDS011;41082;52.822;6.666;2023-05-07T13:34:54;12.95;;;11.75;;
55210;SDS011;41082;52.822;6.666;2023-05-07T13:37:20;12.25;;;10.95;;
55210;SDS011;41082;52.822;6.666;2023-05-07T13:39:46;13.20;;;11.13;;
55210;SDS011;41082;52.822;6.666;2023-05-07T13:42:11;14.05;;;12.70;;
55210;SDS011;41082;52.822;6.666;2023-05-07T13:44:37;13.52;;;12.23;;
55210;SDS011;41082;52.822;6.666;2023-05-07T13:47:02;12.88;;;11.68;;
55210;SDS011;41082;52.822;6.666;2023-05-07T13:49:28;13.57;;;12.27;;
55210;SDS011;41082;52.822;6.666;2023-05-07T13:51:53;13.15;;;11.73;;
55210;SDS011;41082;52.822;6.666;2023-05-07T13:54:19;12.13;;;11.05;;
55210;SDS011;41082;52.822;6.666;2023-05-07T13:56:44;14.10;;;12.68;;
55210;SDS011;41082;52.822;6.666;2023-05-07T13:59:10;12.88;;;11.68;;
55210;SDS011;41082;52.822;6.666;2023-05-07T14:01:35;11.60;;;10.60;;
55210;SDS011;41082;52.822;6.666;2023-05-07T14:04:01;11.65;;;10.55;;
55210;SDS011;41082;52.822;6.666;2023-05-07T14:06:27;11.10;;;10.00;;
55210;SDS011;41082;52.822;6.666;2023-05-07T14:08:52;10.88;;;9.77;;
55210;SDS011;41082;52.822;6.666;2023-05-07T14:11:18;12.88;;;10.00;;
55210;SDS011;41082;52.822;6.666;2023-05-07T14:13:43;10.52;;;9.52;;
55210;SDS011;41082;52.822;6.666;2023-05-07T14:16:09;11.50;;;10.48;;
55210;SDS011;41082;52.822;6.666;2023-05-07T14:18:34;11.60;;;10.45;;
55210;SDS011;41082;52.822;6.666;2023-05-07T14:21:01;11.27;;;10.25;;
55210;SDS011;41082;52.822;6.666;2023-05-07T14:23:27;11.73;;;10.05;;
55210;SDS011;41082;52.822;6.666;2023-05-07T14:25:53;11.48;;;10.48;;
55210;SDS011;41082;52.822;6.666;2023-05-07T14:28:19;10.82;;;9.82;;
55210;SDS011;41082;52.822;6.666;2023-05-07T14:30:44;10.55;;;9.65;;
55210;SDS011;41082;52.822;6.666;2023-05-07T14:33:10;10.75;;;9.80;;
55210;SDS011;41082;52.822;6.666;2023-05-07T14:35:36;10.07;;;9.07;;
55210;SDS011;41082;52.822;6.666;2023-05-07T14:38:01;11.30;;;10.20;;
55210;SDS011;41082;52.822;6.666;2023-05-07T14:40:27;11.25;;;10.13;;
55210;SDS011;41082;52.822;6.666;2023-05-07T14:42:52;10.43;;;9.52;;
55210;SDS011;41082;52.822;6.666;2023-05-07T14:45:18;11.73;;;10.65;;